createdAt,value
2017-05-29T00:00:47.275Z,84.30
2017-05-29T00:03:16.524Z,83.40
2017-05-29T00:05:45.742Z,83.50
2017-05-29T00:08:14.952Z,84.70
2017-05-29T00:10:44.171Z,85.40
2017-05-29T00:13:13.387Z,85.80
2017-05-29T00:15:42.600Z,85.00
2017-05-29T00:18:11.820Z,83.60
2017-05-29T00:20:41.172Z,83.10
2017-05-29T00:23:10.391Z,83.90
2017-05-29T00:25:39.619Z,85.10
2017-05-29T00:28:09.048Z,85.50
2017-05-29T00:30:38.267Z,84.90
2017-05-29T00:33:07.464Z,84.50
2017-05-29T00:35:36.687Z,84.80
2017-05-29T00:38:05.894Z,84.90
2017-05-29T00:40:35.122Z,85.00
2017-05-29T00:43:04.342Z,84.90
2017-05-29T00:45:33.641Z,85.10
2017-05-29T00:48:02.835Z,85.50
2017-05-29T00:50:32.039Z,85.30
2017-05-29T00:53:01.251Z,86.70
2017-05-29T00:55:30.473Z,86.60
2017-05-29T00:57:59.683Z,86.40
2017-05-29T01:00:28.908Z,86.00
2017-05-29T01:02:58.108Z,85.90
2017-05-29T01:05:27.306Z,86.60
2017-05-29T01:07:56.688Z,87.80
2017-05-29T01:10:25.988Z,88.20
2017-05-29T01:12:55.205Z,87.80
2017-05-29T01:15:24.420Z,88.00
2017-05-29T01:17:53.651Z,88.50
2017-05-29T01:20:22.824Z,87.70
2017-05-29T01:22:52.103Z,87.40
2017-05-29T01:25:21.324Z,87.90
2017-05-29T01:27:50.527Z,89.30
2017-05-29T01:30:19.863Z,89.30
2017-05-29T01:32:49.095Z,89.20
2017-05-29T01:35:18.298Z,88.70
2017-05-29T01:37:47.519Z,87.90
2017-05-29T01:40:16.746Z,87.60
2017-05-29T01:42:45.966Z,87.40
2017-05-29T01:45:15.204Z,87.10
2017-05-29T01:47:44.520Z,87.10
2017-05-29T01:50:13.870Z,86.70
2017-05-29T01:52:43.156Z,86.60
2017-05-29T01:55:12.379Z,86.60
2017-05-29T01:57:41.589Z,87.20
2017-05-29T02:00:10.896Z,87.50
2017-05-29T02:02:40.127Z,89.00
2017-05-29T02:05:09.359Z,89.90
2017-05-29T02:07:38.574Z,90.50
2017-05-29T02:10:07.787Z,90.70
2017-05-29T02:12:37.041Z,90.70
2017-05-29T02:15:06.276Z,90.50
2017-05-29T02:17:35.571Z,90.60
2017-05-29T02:20:04.809Z,90.40
2017-05-29T02:22:34.106Z,90.20
2017-05-29T02:25:03.441Z,90.10
2017-05-29T02:27:32.648Z,90.30
2017-05-29T02:30:01.856Z,90.20
2017-05-29T02:32:31.096Z,90.70
2017-05-29T02:35:00.313Z,91.10
2017-05-29T02:37:30.249Z,90.80
2017-05-29T02:39:59.464Z,90.80
2017-05-29T02:42:28.700Z,90.50
2017-05-29T02:44:57.896Z,90.40
2017-05-29T02:47:27.107Z,90.80
2017-05-29T02:49:57.010Z,91.00
2017-05-29T02:52:26.208Z,91.30
2017-05-29T02:54:55.432Z,91.50
2017-05-29T02:57:24.595Z,91.80
2017-05-29T02:59:53.801Z,91.90
2017-05-29T03:02:23.113Z,91.80
2017-05-29T03:04:52.307Z,91.50
2017-05-29T03:07:22.227Z,91.60
2017-05-29T03:09:51.421Z,91.70
2017-05-29T03:12:20.644Z,92.00
2017-05-29T03:14:50.541Z,92.30
2017-05-29T03:17:21.059Z,92.20
2017-05-29T03:19:50.262Z,92.30
2017-05-29T03:22:19.480Z,92.30
2017-05-29T03:24:48.688Z,92.30
2017-05-29T03:27:17.904Z,92.20
2017-05-29T03:29:47.128Z,92.20
2017-05-29T03:32:16.331Z,92.20
2017-05-29T03:34:45.558Z,92.20
2017-05-29T03:37:14.763Z,92.20
2017-05-29T03:39:43.967Z,92.10
2017-05-29T03:42:13.887Z,92.10
2017-05-29T03:44:43.166Z,92.20
2017-05-29T03:47:12.389Z,92.40
2017-05-29T03:49:41.744Z,92.70
2017-05-29T03:52:10.938Z,92.20
2017-05-29T03:54:40.171Z,92.20
2017-05-29T03:57:09.388Z,92.00
2017-05-29T03:59:38.619Z,92.10
2017-05-29T04:02:07.842Z,91.90
2017-05-29T04:04:37.061Z,91.80
2017-05-29T04:07:06.277Z,91.70
2017-05-29T04:09:35.659Z,91.60
2017-05-29T04:12:04.880Z,91.60
2017-05-29T04:14:34.083Z,91.70
2017-05-29T04:17:03.379Z,91.60
2017-05-29T04:19:32.583Z,91.70
2017-05-29T04:22:01.812Z,91.50
2017-05-29T04:24:31.028Z,91.30
2017-05-29T04:27:00.230Z,91.20
2017-05-29T04:29:29.447Z,91.10
2017-05-29T04:31:58.651Z,90.80
2017-05-29T04:34:27.882Z,90.40
2017-05-29T04:36:57.081Z,90.10
2017-05-29T04:39:26.313Z,90.00
2017-05-29T04:41:55.536Z,90.30
2017-05-29T04:44:24.731Z,90.50
2017-05-29T04:46:53.943Z,90.50
2017-05-29T04:49:23.174Z,90.50
2017-05-29T04:51:52.392Z,90.70
2017-05-29T04:54:21.625Z,90.70
2017-05-29T04:56:50.919Z,90.60
2017-05-29T04:59:20.135Z,90.70
2017-05-29T05:01:49.356Z,90.60
2017-05-29T05:04:18.552Z,90.80
2017-05-29T05:06:47.770Z,90.60
2017-05-29T05:09:17.071Z,91.00
2017-05-29T05:11:46.324Z,91.20
2017-05-29T05:14:15.524Z,91.50
2017-05-29T05:16:44.755Z,90.90
2017-05-29T05:19:13.969Z,89.80
2017-05-29T05:21:43.185Z,89.00
2017-05-29T05:24:12.387Z,87.80
2017-05-29T05:26:41.611Z,87.20
2017-05-29T05:29:10.816Z,86.20
2017-05-29T05:31:40.018Z,85.50
2017-05-29T05:34:09.240Z,86.10
2017-05-29T05:36:38.465Z,86.00
2017-05-29T05:39:07.672Z,85.10
2017-05-29T05:41:36.899Z,84.30
2017-05-29T05:44:06.117Z,83.40
2017-05-29T05:46:35.347Z,82.90
2017-05-29T05:49:04.555Z,82.20
2017-05-29T05:51:33.800Z,80.00
2017-05-29T05:54:02.997Z,79.00
2017-05-29T05:56:32.219Z,77.90
2017-05-29T05:59:01.423Z,77.70
2017-05-29T06:01:30.633Z,77.30
2017-05-29T06:03:59.857Z,76.70
2017-05-29T06:06:29.063Z,77.10
2017-05-29T06:08:58.292Z,76.80
2017-05-29T06:11:27.596Z,77.60
2017-05-29T06:13:56.811Z,78.70
2017-05-29T06:16:26.738Z,79.30
2017-05-29T06:18:55.944Z,79.00
2017-05-29T06:21:25.169Z,77.30
2017-05-29T06:23:55.065Z,77.70
2017-05-29T06:26:24.300Z,75.80
2017-05-29T06:28:53.502Z,76.00
2017-05-29T06:31:22.703Z,75.30
2017-05-29T06:33:51.924Z,78.10
2017-05-29T06:36:21.132Z,78.40
2017-05-29T06:38:50.353Z,77.90
2017-05-29T06:41:19.612Z,78.00
2017-05-29T06:43:48.816Z,76.70
2017-05-29T06:46:18.032Z,77.70
2017-05-29T06:48:46.463Z,77.70
2017-05-29T06:51:15.784Z,75.70
2017-05-29T06:53:44.990Z,75.70
2017-05-29T06:56:13.482Z,75.70
2017-05-29T06:58:42.682Z,74.70
2017-05-29T07:01:11.963Z,75.60
2017-05-29T07:03:41.201Z,74.10
2017-05-29T07:06:10.421Z,73.60
2017-05-29T07:08:39.660Z,75.00
2017-05-29T07:11:08.873Z,73.30
2017-05-29T07:13:38.096Z,73.70
2017-05-29T07:16:07.301Z,74.40
2017-05-29T07:18:37.219Z,74.50
2017-05-29T07:21:06.454Z,73.20
2017-05-29T07:23:35.676Z,73.60
2017-05-29T07:26:04.891Z,74.70
2017-05-29T07:28:33.344Z,74.60
2017-05-29T07:31:01.779Z,70.20
2017-05-29T07:33:31.037Z,70.50
2017-05-29T07:36:00.266Z,67.50
2017-05-29T07:38:29.465Z,69.00
2017-05-29T07:40:58.680Z,68.20
2017-05-29T07:43:27.908Z,67.10
2017-05-29T07:45:57.119Z,68.10
2017-05-29T07:48:26.344Z,66.90
2017-05-29T07:50:55.562Z,67.50
2017-05-29T07:53:24.815Z,64.40
2017-05-29T07:55:54.024Z,65.40
2017-05-29T07:58:23.306Z,64.50
2017-05-29T08:00:52.527Z,63.50
2017-05-29T08:03:21.744Z,65.30
2017-05-29T08:05:50.967Z,64.70
2017-05-29T08:08:20.185Z,65.90
2017-05-29T08:10:49.419Z,64.50
2017-05-29T08:13:18.634Z,65.90
2017-05-29T08:15:47.855Z,63.90
2017-05-29T08:18:17.054Z,64.60
2017-05-29T08:20:46.279Z,61.50
2017-05-29T08:23:15.485Z,63.10
2017-05-29T08:25:44.693Z,62.90
2017-05-29T08:28:14.623Z,61.00
2017-05-29T08:30:43.471Z,60.70
2017-05-29T08:33:12.684Z,61.70
2017-05-29T08:35:41.930Z,59.00
2017-05-29T08:38:11.819Z,57.20
2017-05-29T08:40:41.053Z,58.30
2017-05-29T08:43:10.940Z,57.80
2017-05-29T08:45:40.163Z,57.30
2017-05-29T08:48:09.565Z,57.60
2017-05-29T08:50:38.007Z,57.50
2017-05-29T08:53:07.224Z,57.00
2017-05-29T08:55:36.444Z,55.30
2017-05-29T08:58:05.659Z,57.10
2017-05-29T09:00:34.107Z,57.00
2017-05-29T09:03:03.308Z,57.50
2017-05-29T09:05:31.800Z,57.50
2017-05-29T09:08:00.989Z,55.10
2017-05-29T09:10:30.212Z,53.40
2017-05-29T09:12:59.415Z,53.70
2017-05-29T09:15:28.644Z,52.50
2017-05-29T09:17:57.879Z,53.20
2017-05-29T09:20:27.086Z,53.30
2017-05-29T09:22:56.305Z,53.00
2017-05-29T09:25:25.514Z,51.90
2017-05-29T09:27:54.727Z,52.20
2017-05-29T09:30:24.027Z,51.50
2017-05-29T09:32:53.249Z,51.00
2017-05-29T09:35:22.463Z,50.20
2017-05-29T09:37:51.675Z,52.70
2017-05-29T09:40:20.131Z,52.60
2017-05-29T09:42:49.350Z,50.50
2017-05-29T09:45:17.801Z,51.00
2017-05-29T09:47:47.029Z,52.80
2017-05-29T09:50:16.248Z,51.40
2017-05-29T09:52:45.459Z,51.60
2017-05-29T09:55:14.698Z,50.90
2017-05-29T09:57:43.907Z,52.40
2017-05-29T10:00:13.123Z,54.50
2017-05-29T10:02:42.327Z,54.70
2017-05-29T10:05:11.542Z,54.00
2017-05-29T10:07:40.776Z,53.70
2017-05-29T10:10:09.995Z,53.10
2017-05-29T10:12:39.201Z,52.00
2017-05-29T10:15:08.408Z,52.90
2017-05-29T10:17:36.869Z,52.90
2017-05-29T10:20:05.299Z,53.50
2017-05-29T10:22:34.502Z,52.00
2017-05-29T10:25:02.987Z,52.00
2017-05-29T10:27:32.887Z,48.00
2017-05-29T10:30:02.780Z,47.60
2017-05-29T10:32:32.684Z,48.40
2017-05-29T10:35:01.901Z,44.90
2017-05-29T10:37:30.343Z,44.80
2017-05-29T10:39:59.535Z,44.30
2017-05-29T10:42:28.742Z,43.40
2017-05-29T10:44:57.172Z,43.30
2017-05-29T10:47:25.623Z,43.10
2017-05-29T10:49:54.057Z,46.60
2017-05-29T10:52:23.259Z,47.10
2017-05-29T10:54:52.473Z,42.60
2017-05-29T10:57:21.667Z,43.80
2017-05-29T10:59:50.907Z,43.10
2017-05-29T11:02:20.103Z,43.00
2017-05-29T11:04:49.308Z,39.20
2017-05-29T11:07:17.878Z,39.20
2017-05-29T11:09:47.754Z,37.20
2017-05-29T11:12:16.974Z,40.20
2017-05-29T11:14:46.203Z,39.20
2017-05-29T11:17:15.423Z,40.10
2017-05-29T11:19:44.642Z,40.40
2017-05-29T11:22:13.839Z,41.60
2017-05-29T11:24:42.329Z,41.50
2017-05-29T11:27:10.776Z,40.60
2017-05-29T11:29:40.005Z,41.50
2017-05-29T11:32:09.228Z,40.20
2017-05-29T11:34:38.502Z,41.40
2017-05-29T11:37:06.975Z,41.30
2017-05-29T11:39:35.435Z,38.30
2017-05-29T11:42:04.660Z,39.10
2017-05-29T11:44:33.859Z,35.90
2017-05-29T11:47:03.106Z,35.30
2017-05-29T11:49:32.292Z,38.50
2017-05-29T11:52:00.763Z,38.50
2017-05-29T11:54:30.083Z,37.40
2017-05-29T11:56:58.575Z,37.40
2017-05-29T11:59:27.003Z,35.50
2017-05-29T12:01:56.200Z,35.00
2017-05-29T12:04:25.422Z,35.90
2017-05-29T12:06:54.628Z,37.10
2017-05-29T12:09:23.835Z,38.40
2017-05-29T12:11:52.295Z,38.30
2017-05-29T12:14:21.515Z,38.00
2017-05-29T12:16:49.964Z,37.90
2017-05-29T12:19:18.404Z,36.20
2017-05-29T12:21:47.627Z,31.90
2017-05-29T12:24:16.832Z,32.90
2017-05-29T12:26:46.072Z,31.30
2017-05-29T12:29:15.277Z,31.60
2017-05-29T12:31:44.475Z,31.20
2017-05-29T12:34:13.791Z,33.50
2017-05-29T12:36:42.978Z,36.40
2017-05-29T12:39:12.210Z,35.30
2017-05-29T12:41:41.414Z,32.50
2017-05-29T12:44:10.646Z,34.40
2017-05-29T12:46:39.864Z,35.60
2017-05-29T12:49:08.308Z,35.50
2017-05-29T12:51:38.340Z,38.00
2017-05-29T12:54:07.542Z,35.20
2017-05-29T12:56:36.030Z,35.20
2017-05-29T12:59:05.967Z,33.80
2017-05-29T13:01:35.195Z,32.40
2017-05-29T13:04:04.392Z,33.50
2017-05-29T13:06:33.534Z,33.40
2017-05-29T13:09:02.767Z,34.40
2017-05-29T13:11:32.088Z,35.10
2017-05-29T13:14:01.316Z,35.50
2017-05-29T13:16:30.524Z,34.90
2017-05-29T13:18:59.033Z,35.00
2017-05-29T13:21:28.161Z,33.70
2017-05-29T13:23:57.352Z,33.50
2017-05-29T13:26:25.832Z,33.50
2017-05-29T13:28:55.029Z,34.40
2017-05-29T13:31:24.938Z,33.70
2017-05-29T13:33:54.146Z,34.00
2017-05-29T13:36:22.604Z,34.00
2017-05-29T13:38:51.790Z,34.20
2017-05-29T13:41:20.247Z,34.20
2017-05-29T13:43:49.479Z,36.20
2017-05-29T13:46:18.696Z,36.80
2017-05-29T13:48:47.163Z,36.80
2017-05-29T13:51:17.399Z,36.40
2017-05-29T13:53:46.603Z,35.40
2017-05-29T13:56:15.800Z,36.10
2017-05-29T13:58:44.939Z,36.20
2017-05-29T14:01:14.183Z,34.30
2017-05-29T14:03:43.450Z,32.70
2017-05-29T14:06:12.659Z,33.60
2017-05-29T14:08:41.885Z,35.90
2017-05-29T14:11:11.088Z,33.90
2017-05-29T14:13:40.276Z,35.40
2017-05-29T14:16:08.722Z,35.30
2017-05-29T14:18:38.136Z,29.50
2017-05-29T14:21:07.352Z,29.00
2017-05-29T14:23:36.592Z,29.10
2017-05-29T14:26:05.828Z,29.70
2017-05-29T14:28:35.095Z,29.20
2017-05-29T14:31:04.290Z,28.20
2017-05-29T14:33:33.519Z,29.90
2017-05-29T14:36:02.848Z,28.40
2017-05-29T14:38:32.299Z,27.60
2017-05-29T14:41:01.516Z,29.50
2017-05-29T14:43:30.713Z,28.60
2017-05-29T14:45:59.223Z,28.60
2017-05-29T14:48:27.672Z,29.70
2017-05-29T14:50:56.165Z,29.60
2017-05-29T14:53:25.384Z,29.10
2017-05-29T14:55:54.614Z,29.70
2017-05-29T14:58:23.836Z,30.70
2017-05-29T15:00:52.281Z,30.80
2017-05-29T15:03:21.508Z,30.50
2017-05-29T15:05:49.940Z,30.40
2017-05-29T15:08:19.161Z,31.30
2017-05-29T15:10:47.607Z,31.30
2017-05-29T15:13:16.807Z,31.70
2017-05-29T15:15:46.028Z,33.50
2017-05-29T15:18:15.245Z,33.10
2017-05-29T15:20:44.476Z,32.30
2017-05-29T15:23:13.683Z,32.10
2017-05-29T15:25:42.911Z,32.20
2017-05-29T15:28:12.121Z,29.40
2017-05-29T15:30:41.345Z,32.40
2017-05-29T15:33:10.560Z,32.90
2017-05-29T15:35:39.796Z,31.30
2017-05-29T15:38:09.014Z,33.70
2017-05-29T15:40:38.215Z,29.30
2017-05-29T15:43:07.431Z,29.10
2017-05-29T15:45:36.447Z,29.60
2017-05-29T15:48:05.671Z,31.50
2017-05-29T15:50:34.983Z,34.10
2017-05-29T15:53:04.219Z,34.80
2017-05-29T15:55:32.663Z,34.70
2017-05-29T15:58:01.107Z,34.20
2017-05-29T16:00:29.626Z,36.30
2017-05-29T16:02:59.516Z,34.70
2017-05-29T16:05:28.741Z,34.70
2017-05-29T16:07:58.052Z,35.30
2017-05-29T16:10:27.250Z,36.60
2017-05-29T16:12:56.535Z,37.10
2017-05-29T16:15:25.747Z,36.60
2017-05-29T16:17:54.991Z,36.90
2017-05-29T16:20:23.502Z,36.90
2017-05-29T16:22:52.721Z,38.00
2017-05-29T16:25:21.960Z,37.30
2017-05-29T16:27:50.396Z,37.30
2017-05-29T16:30:19.635Z,38.30
2017-05-29T16:32:48.853Z,38.90
2017-05-29T16:35:17.300Z,38.90
2017-05-29T16:37:46.513Z,39.10
2017-05-29T16:40:14.964Z,39.00
2017-05-29T16:42:44.273Z,38.60
2017-05-29T16:45:12.739Z,38.50
2017-05-29T16:47:41.175Z,38.70
2017-05-29T16:50:09.636Z,36.50
2017-05-29T16:52:38.869Z,38.60
2017-05-29T16:55:08.084Z,39.40
2017-05-29T16:57:37.296Z,38.70
2017-05-29T17:00:06.513Z,38.70
2017-05-29T17:02:35.745Z,38.30
2017-05-29T17:05:04.968Z,37.30
2017-05-29T17:07:34.170Z,38.00
2017-05-29T17:10:02.739Z,38.00
2017-05-29T17:12:32.025Z,39.20
2017-05-29T17:15:00.455Z,39.10
2017-05-29T17:17:29.686Z,39.30
2017-05-29T17:19:58.132Z,39.20
2017-05-29T17:22:27.367Z,41.70
2017-05-29T17:24:55.795Z,41.60
2017-05-29T17:27:25.003Z,43.80
2017-05-29T17:29:54.232Z,43.80
2017-05-29T17:32:23.448Z,44.10
2017-05-29T17:34:52.666Z,44.40
2017-05-29T17:37:22.567Z,45.00
2017-05-29T17:39:52.512Z,47.10
2017-05-29T17:42:21.713Z,46.70
2017-05-29T17:44:50.943Z,46.70
2017-05-29T17:47:20.159Z,46.60
2017-05-29T17:49:49.841Z,47.00
2017-05-29T17:52:19.048Z,47.50
2017-05-29T17:54:48.288Z,47.50
2017-05-29T17:57:17.500Z,48.30
2017-05-29T17:59:46.790Z,48.80
2017-05-29T18:02:16.028Z,49.00
2017-05-29T18:04:45.235Z,47.50
2017-05-29T18:07:14.464Z,47.90
2017-05-29T18:09:43.671Z,48.10
2017-05-29T18:12:12.873Z,48.20
2017-05-29T18:14:42.124Z,48.40
2017-05-29T18:17:11.338Z,48.60
2017-05-29T18:19:40.569Z,49.20
2017-05-29T18:22:09.789Z,49.10
2017-05-29T18:24:39.031Z,49.00
2017-05-29T18:27:08.238Z,49.10
2017-05-29T18:29:37.464Z,49.20
2017-05-29T18:32:06.705Z,49.50
2017-05-29T18:34:36.008Z,50.30
2017-05-29T18:37:05.296Z,50.30
2017-05-29T18:39:34.532Z,51.00
2017-05-29T18:42:03.768Z,53.20
2017-05-29T18:44:32.964Z,52.50
2017-05-29T18:47:02.199Z,53.30
2017-05-29T18:49:31.414Z,53.50
2017-05-29T18:52:00.633Z,54.60
2017-05-29T18:54:29.855Z,55.50
2017-05-29T18:56:59.065Z,55.30
2017-05-29T18:59:28.279Z,55.70
2017-05-29T19:01:57.507Z,56.40
2017-05-29T19:04:26.763Z,56.60
2017-05-29T19:06:55.937Z,56.70
2017-05-29T19:09:25.179Z,58.40
2017-05-29T19:11:54.395Z,60.40
2017-05-29T19:14:23.624Z,62.20
2017-05-29T19:16:52.839Z,60.40
2017-05-29T19:19:22.053Z,61.10
2017-05-29T19:21:51.263Z,61.70
2017-05-29T19:24:20.497Z,63.70
2017-05-29T19:26:49.515Z,64.40
2017-05-29T19:29:18.728Z,65.20
2017-05-29T19:31:48.086Z,66.50
2017-05-29T19:34:17.308Z,68.80
2017-05-29T19:36:46.548Z,70.40
2017-05-29T19:39:15.757Z,71.70
2017-05-29T19:41:45.004Z,73.50
2017-05-29T19:44:14.887Z,73.80
2017-05-29T19:46:44.158Z,74.40
2017-05-29T19:49:13.388Z,74.50
2017-05-29T19:51:42.644Z,74.50
2017-05-29T19:54:11.892Z,73.80
2017-05-29T19:56:41.116Z,73.80
2017-05-29T19:59:10.336Z,74.50
2017-05-29T20:01:39.592Z,73.80
2017-05-29T20:04:08.819Z,74.20
2017-05-29T20:06:38.064Z,75.50
2017-05-29T20:09:07.292Z,75.70
2017-05-29T20:11:36.505Z,75.80
2017-05-29T20:14:05.752Z,76.70
2017-05-29T20:16:34.988Z,76.90
2017-05-29T20:19:04.236Z,76.90
2017-05-29T20:21:33.456Z,76.60
2017-05-29T20:24:02.814Z,76.30
2017-05-29T20:26:32.045Z,76.30
2017-05-29T20:29:01.985Z,76.60
2017-05-29T20:31:31.208Z,77.50
2017-05-29T20:34:00.440Z,78.20
2017-05-29T20:36:29.668Z,78.90
2017-05-29T20:38:59.015Z,80.20
2017-05-29T20:41:28.394Z,80.90
2017-05-29T20:43:57.619Z,82.70
2017-05-29T20:46:26.837Z,83.10
2017-05-29T20:48:56.063Z,82.60
2017-05-29T20:51:25.300Z,82.30
2017-05-29T20:53:54.572Z,80.90
2017-05-29T20:56:23.810Z,81.40
2017-05-29T20:58:53.714Z,79.90
2017-05-29T21:01:22.955Z,79.30
2017-05-29T21:03:52.205Z,79.90
2017-05-29T21:06:21.412Z,79.70
2017-05-29T21:08:50.662Z,79.10
2017-05-29T21:11:19.860Z,79.60
2017-05-29T21:13:48.749Z,80.00
2017-05-29T21:16:17.960Z,80.00
2017-05-29T21:18:47.231Z,80.10
2017-05-29T21:21:16.418Z,80.00
2017-05-29T21:23:45.640Z,79.90
2017-05-29T21:26:14.888Z,79.20
2017-05-29T21:28:44.099Z,79.10
2017-05-29T21:31:13.382Z,78.60
2017-05-29T21:33:42.591Z,73.90
2017-05-29T21:36:11.808Z,76.20
2017-05-29T21:38:41.027Z,78.90
2017-05-29T21:41:10.943Z,76.50
2017-05-29T21:43:40.164Z,75.80
2017-05-29T21:46:09.422Z,75.80
2017-05-29T21:48:38.684Z,77.30
2017-05-29T21:51:07.900Z,77.40
2017-05-29T21:53:37.155Z,77.00
2017-05-29T21:56:06.364Z,76.90
2017-05-29T21:58:35.685Z,76.20
2017-05-29T22:01:04.891Z,76.50
2017-05-29T22:03:34.116Z,76.60
2017-05-29T22:06:03.478Z,77.40
2017-05-29T22:08:32.701Z,77.00
2017-05-29T22:11:01.911Z,76.60
2017-05-29T22:13:31.128Z,74.20
2017-05-29T22:16:00.369Z,69.50
2017-05-29T22:18:29.592Z,70.20
2017-05-29T22:20:58.811Z,65.50
2017-05-29T22:23:28.121Z,68.90
2017-05-29T22:25:57.348Z,63.60
2017-05-29T22:28:27.241Z,59.60
2017-05-29T22:30:56.476Z,58.70
2017-05-29T22:33:25.704Z,58.60
2017-05-29T22:35:54.901Z,57.90
2017-05-29T22:38:24.118Z,59.80
2017-05-29T22:40:53.365Z,64.30
2017-05-29T22:43:22.579Z,65.30
2017-05-29T22:45:51.781Z,66.00
2017-05-29T22:48:21.123Z,62.40
2017-05-29T22:50:50.332Z,60.80
2017-05-29T22:53:19.543Z,60.70
2017-05-29T22:55:48.760Z,59.10
2017-05-29T22:58:18.018Z,53.70
2017-05-29T23:00:47.374Z,53.40
2017-05-29T23:03:16.579Z,61.20
2017-05-29T23:05:45.875Z,49.60
2017-05-29T23:08:15.092Z,47.10
2017-05-29T23:10:44.341Z,46.80
2017-05-29T23:13:13.563Z,54.40
2017-05-29T23:15:42.775Z,56.30
2017-05-29T23:18:12.003Z,56.00
2017-05-29T23:20:41.212Z,55.10
2017-05-29T23:23:10.443Z,56.70
2017-05-29T23:25:39.673Z,59.90
2017-05-29T23:28:08.915Z,60.80
2017-05-29T23:30:38.220Z,59.00
2017-05-29T23:33:07.441Z,58.70
2017-05-29T23:35:36.675Z,59.40
2017-05-29T23:38:05.868Z,61.10
2017-05-29T23:40:35.092Z,60.00
2017-05-29T23:43:04.288Z,60.10
2017-05-29T23:45:33.501Z,59.30
2017-05-29T23:48:02.817Z,58.20
2017-05-29T23:50:32.036Z,62.30
2017-05-29T23:53:01.396Z,63.00
2017-05-29T23:55:30.595Z,73.30
2017-05-29T23:57:59.856Z,77.70
